Time;durP1;ratioP1;P1;durP2;ratioP2;P2;SDS_P1;SDS_P2;PMS_P1;PMS_P2;Temp;Humidity;BMP_temperature;BMP_pressure;BME280_temperature;BME280_humidity;BME280_pressure;Samples;Min_cycle;Max_cycle;Signal;HPM_P1;HPM_P2
2022/12/18 00:00:46;;;;;;;;;;;;;;;21.78;38.91;95821.38;6129867;19;958;-81
2022/12/18 00:02:51;;;;;;;;;;;;;;;21.76;38.85;95827.94;6127474;19;1346;-81
2022/12/18 00:04:55;;;;;;;;;;;;;;;21.75;38.79;95823.63;6130032;19;967;-81
2022/12/18 00:06:59;;;;;;;;;;;;;;;21.75;39.18;95835.16;6127250;19;1856;-81
2022/12/18 00:09:03;;;;;;;;;;;;;;;21.75;39.06;95840.50;6118990;19;1055;-81
2022/12/18 00:11:10;;;;;;;;;;;;;;;21.76;39.24;95838.66;6128537;19;1154;-80
2022/12/18 00:13:14;;;;;;;;;;;;;;;21.76;38.97;95838.66;6128569;19;1154;-82
2022/12/18 00:15:18;;;;;;;;;;;;;;;21.75;39.15;95839.69;6128287;19;1381;-81
2022/12/18 00:17:21;;;;;;;;;;;;;;;21.74;39.20;95838.00;6129334;19;1143;-81
2022/12/18 00:19:25;;;;;;;;;;;;;;;21.75;38.86;95840.50;6126987;19;1156;-86
2022/12/18 00:21:29;;;;;;;;;;;;;;;21.77;39.23;95848.31;6121310;19;1423;-81
2022/12/18 00:23:33;;;;;;;;;;;;;;;21.77;39.09;95845.63;6128662;19;1058;-81
2022/12/18 00:25:37;;;;;;;;;;;;;;;21.77;39.04;95853.66;6125509;19;1368;-81
2022/12/18 00:27:43;;;;;;;;;;;;;;;21.77;38.83;95856.34;6127125;19;1834;-81
2022/12/18 00:29:46;;;;;;;;;;;;;;;21.78;39.15;95853.47;6128703;19;1161;-81
2022/12/18 00:31:49;;;;;;;;;;;;;;;21.74;38.77;95856.75;6117468;19;1529;-81
2022/12/18 00:33:53;;;;;;;;;;;;;;;21.76;38.81;95862.72;6128267;19;1129;-81
2022/12/18 00:36:00;;;;;;;;;;;;;;;21.76;39.06;95862.72;6128716;19;992;-82
2022/12/18 00:38:07;;;;;;;;;;;;;;;21.80;38.66;95861.31;6129404;19;1005;-81
2022/12/18 00:40:12;;;;;;;;;;;;;;;21.78;38.97;95868.72;6128406;19;1065;-82
2022/12/18 00:44:34;;;;;;;;;;;;;;;21.75;38.92;95871.78;6122640;19;1172;-81
2022/12/18 00:46:40;;;;;;;;;;;;;;;21.76;39.08;95870.75;6127536;19;1814;-82
2022/12/18 00:48:43;;;;;;;;;;;;;;;21.76;38.91;95868.91;6127960;19;1046;-81
2022/12/18 00:50:47;;;;;;;;;;;;;;;21.76;39.05;95876.09;6128308;19;1116;-83
2022/12/18 00:52:50;;;;;;;;;;;;;;;21.76;38.85;95870.75;6128618;19;989;-82
2022/12/18 00:54:53;;;;;;;;;;;;;;;21.75;39.12;95877.13;6117090;19;1078;-81
2022/12/18 00:56:58;;;;;;;;;;;;;;;21.76;38.81;95881.44;6125579;19;1464;-82
2022/12/18 00:59:01;;;;;;;;;;;;;;;21.79;38.94;95884.56;6125816;19;1511;-82
2022/12/18 01:01:09;;;;;;;;;;;;;;;21.77;38.71;95883.94;6127599;19;1132;-81
2022/12/18 01:03:15;;;;;;;;;;;;;;;21.77;38.80;95880.41;6126264;19;1560;-81
2022/12/18 01:05:19;;;;;;;;;;;;;;;21.78;38.79;95887.44;6122093;19;1049;-82
2022/12/18 01:07:22;;;;;;;;;;;;;;;21.79;38.91;95891.75;6120369;19;1815;-81
2022/12/18 01:09:35;;;;;;;;;;;;;;;21.80;39.13;95890.75;6127704;19;1044;-81
2022/12/18 01:11:38;;;;;;;;;;;;;;;21.76;39.05;95895.66;6127483;19;1045;-82
2022/12/18 01:13:39;;;;;;;;;;;;;;;21.76;39.18;95898.31;6126687;19;1110;-81
2022/12/18 01:15:42;;;;;;;;;;;;;;;21.78;38.91;95890.94;6127646;19;1060;-81
2022/12/18 01:17:48;;;;;;;;;;;;;;;21.76;38.81;95894.81;6116295;19;1035;-82
2022/12/18 01:19:54;;;;;;;;;;;;;;;21.77;39.14;95901.81;6127233;19;1065;-82
2022/12/18 01:21:58;;;;;;;;;;;;;;;21.74;38.83;95897.72;6127034;19;1069;-82
2022/12/18 01:24:01;;;;;;;;;;;;;;;21.76;38.93;95897.50;6126779;19;1112;-82
2022/12/18 01:26:09;;;;;;;;;;;;;;;21.76;39.04;95898.31;6126731;19;1073;-82
2022/12/18 01:28:13;;;;;;;;;;;;;;;21.76;38.92;95905.53;6119515;19;1853;-83
2022/12/18 01:30:17;;;;;;;;;;;;;;;21.77;39.07;95901.81;6124806;19;1003;-82
2022/12/18 01:32:21;;;;;;;;;;;;;;;21.78;38.71;95915.00;6125761;19;1227;-81
2022/12/18 01:34:27;;;;;;;;;;;;;;;21.80;39.13;95917.50;6127291;19;1176;-82
2022/12/18 01:36:32;;;;;;;;;;;;;;;21.78;38.84;95911.50;6127237;19;1028;-82
2022/12/18 01:38:35;;;;;;;;;;;;;;;21.77;38.86;95920.53;6126435;19;1032;-81
2022/12/18 01:40:39;;;;;;;;;;;;;;;21.77;38.77;95923.22;6116422;19;1054;-82
2022/12/18 01:42:42;;;;;;;;;;;;;;;21.80;38.81;95922.84;6126857;19;1152;-81
2022/12/18 01:45:00;;;;;;;;;;;;;;;21.76;38.76;95918.91;6127079;19;1108;-80
2022/12/18 01:47:04;;;;;;;;;;;;;;;21.77;38.87;95920.53;6126056;19;1857;-82
2022/12/18 01:49:07;;;;;;;;;;;;;;;21.77;38.78;95923.22;6126824;19;1152;-82
2022/12/18 01:51:15;;;;;;;;;;;;;;;21.78;39.14;95936.41;6115915;19;1069;-82
2022/12/18 01:53:20;;;;;;;;;;;;;;;21.80;38.66;95925.53;6126300;19;1041;-82
2022/12/18 01:55:26;;;;;;;;;;;;;;;21.77;38.80;95926.75;6126812;19;1036;-81
2022/12/18 01:57:30;;;;;;;;;;;;;;;21.78;39.06;95930.25;6126181;19;1139;-81
2022/12/18 01:59:35;;;;;;;;;;;;;;;21.78;38.88;95927.56;6126242;19;1029;-81
2022/12/18 02:01:39;;;;;;;;;;;;;;;21.78;38.70;95930.25;6124297;19;981;-80
2022/12/18 02:03:44;;;;;;;;;;;;;;;21.76;38.84;95935.78;6118120;19;1212;-81
2022/12/18 02:05:50;;;;;;;;;;;;;;;21.79;39.04;95943.41;6125593;19;1352;-80
2022/12/18 02:08:03;;;;;;;;;;;;;;;21.76;38.77;95933.09;6124985;19;1814;-81
2022/12/18 02:10:10;;;;;;;;;;;;;;;21.79;39.06;95942.59;6125439;19;1055;-81
2022/12/18 02:12:16;;;;;;;;;;;;;;;21.79;39.04;95945.25;6125872;19;958;-80
2022/12/18 02:14:24;;;;;;;;;;;;;;;21.79;39.02;95950.59;6115308;19;1219;-80
2022/12/18 02:16:31;;;;;;;;;;;;;;;21.79;38.67;95950.59;6126184;19;989;-81
2022/12/18 02:18:46;;;;;;;;;;;;;;;21.77;38.75;95945.47;6123824;19;1461;-80
2022/12/18 02:20:52;;;;;;;;;;;;;;;21.78;38.93;95957.00;6125112;19;1090;-80
2022/12/18 02:23:08;;;;;;;;;;;;;;;21.76;38.79;95951.81;6126079;19;1142;-82
2022/12/18 02:25:22;;;;;;;;;;;;;;;21.76;39.11;95953.69;6115608;19;1060;-81
2022/12/18 02:27:28;;;;;;;;;;;;;;;21.77;39.15;95949.97;6124678;19;1820;-82
2022/12/18 02:29:34;;;;;;;;;;;;;;;21.80;39.08;95954.97;6125538;19;1028;-82
2022/12/18 02:31:39;;;;;;;;;;;;;;;21.78;38.83;95962.34;6125726;19;1083;-80
2022/12/18 02:33:44;;;;;;;;;;;;;;;21.77;39.05;95958.84;6124768;19;1069;-82
2022/12/18 02:35:49;;;;;;;;;;;;;;;21.77;38.74;95961.53;6121608;19;1016;-83
2022/12/18 02:37:53;;;;;;;;;;;;;;;21.75;38.89;95957.38;6119705;19;973;-82
2022/12/18 02:39:59;;;;;;;;;;;;;;;21.75;38.85;95963.56;6125174;19;1004;-82
2022/12/18 02:42:07;;;;;;;;;;;;;;;21.76;39.00;95964.38;6125449;19;1033;-82
2022/12/18 02:44:14;;;;;;;;;;;;;;;21.75;39.06;95968.09;6125727;19;1105;-82
2022/12/18 02:46:27;;;;;;;;;;;;;;;21.76;39.17;95970.56;6125383;19;1015;-82
2022/12/18 02:48:33;;;;;;;;;;;;;;;21.78;38.66;95968.53;6114467;19;1861;-82
2022/12/18 02:50:38;;;;;;;;;;;;;;;21.77;38.71;95968.69;6131953;19;1042;-82
2022/12/18 02:52:46;;;;;;;;;;;;;;;21.75;38.81;95973.44;6131864;19;1024;-82
2022/12/18 02:54:55;;;;;;;;;;;;;;;21.77;39.03;95974.91;6131506;19;1056;-81
2022/12/18 02:57:02;;;;;;;;;;;;;;;21.78;38.98;95973.03;6130746;19;1041;-81
2022/12/18 02:59:10;;;;;;;;;;;;;;;21.77;38.89;95979.41;6124641;19;1086;-84
2022/12/18 03:01:21;;;;;;;;;;;;;;;21.78;39.05;95986.41;6131421;19;1155;-81
2022/12/18 03:03:27;;;;;;;;;;;;;;;21.76;38.90;95985.78;6130848;19;1136;-82
2022/12/18 03:05:34;;;;;;;;;;;;;;;21.75;38.69;95989.50;6130704;19;1061;-81
2022/12/18 03:07:39;;;;;;;;;;;;;;;21.75;38.75;95994.84;6130562;19;1838;-81
2022/12/18 03:09:45;;;;;;;;;;;;;;;21.78;38.72;95997.13;6129037;19;1374;-82
2022/12/18 03:14:09;;;;;;;;;;;;;;;21.75;39.04;95994.84;6130019;19;1058;-82
2022/12/18 03:16:17;;;;;;;;;;;;;;;21.75;39.09;96000.19;6130800;19;1116;-83
2022/12/18 03:18:25;;;;;;;;;;;;;;;21.75;39.01;95993.00;6131008;19;1144;-83
2022/12/18 03:20:30;;;;;;;;;;;;;;;21.76;38.85;95991.94;6131489;19;983;-82
2022/12/18 03:22:36;;;;;;;;;;;;;;;21.77;38.93;95995.44;6119937;19;1347;-82
2022/12/18 03:24:42;;;;;;;;;;;;;;;21.77;38.72;96011.50;6131206;19;1461;-82
2022/12/18 03:26:47;;;;;;;;;;;;;;;21.76;39.11;96004.50;6131287;19;1053;-81
2022/12/18 03:28:53;;;;;;;;;;;;;;;21.77;38.95;96006.16;6128297;19;1842;-82
2022/12/18 03:30:59;;;;;;;;;;;;;;;21.76;38.82;95997.31;6129352;19;1481;-82
2022/12/18 03:33:06;;;;;;;;;;;;;;;21.77;38.63;96008.81;6125933;19;984;-83
2022/12/18 03:35:21;;;;;;;;;;;;;;;21.75;39.03;96010.91;6127099;19;1064;-82
2022/12/18 03:37:25;;;;;;;;;;;;;;;21.79;39.06;96028.19;6130506;19;1029;-82
2022/12/18 03:39:28;;;;;;;;;;;;;;;21.77;38.94;96023.06;6130104;19;1146;-82
2022/12/18 03:41:34;;;;;;;;;;;;;;;21.77;38.77;96020.38;6128646;19;1487;-82
2022/12/18 03:43:45;;;;;;;;;;;;;;;21.76;39.11;96013.34;6130544;19;1039;-83
2022/12/18 03:45:55;;;;;;;;;;;;;;;21.76;38.96;96009.88;6121486;19;1062;-82
2022/12/18 03:48:03;;;;;;;;;;;;;;;21.77;38.70;96019.53;6127080;19;1865;-82
2022/12/18 03:50:11;;;;;;;;;;;;;;;21.76;38.92;96029.41;6130852;19;1152;-82
2022/12/18 03:52:20;;;;;;;;;;;;;;;21.78;39.02;96034.59;6129570;19;1077;-82
2022/12/18 03:54:25;;;;;;;;;;;;;;;21.79;38.89;96038.91;6129828;19;1270;-83
2022/12/18 03:56:32;;;;;;;;;;;;;;;21.77;39.08;96051.63;6118733;19;1036;-83
2022/12/18 03:58:36;;;;;;;;;;;;;;;21.75;38.84;96040.31;6130023;19;1028;-82
2022/12/18 04:00:40;;;;;;;;;;;;;;;21.75;39.12;96046.50;6127829;19;1067;-83
2022/12/18 04:02:47;;;;;;;;;;;;;;;21.75;38.98;96038.47;6129759;19;1031;-81
2022/12/18 04:04:54;;;;;;;;;;;;;;;21.76;39.07;96042.78;6129414;19;1029;-82
2022/12/18 04:06:59;;;;;;;;;;;;;;;21.77;38.71;96035.59;6123333;19;1312;-82
2022/12/18 04:09:06;;;;;;;;;;;;;;;21.76;39.05;96044.63;6122554;19;1880;-82
2022/12/18 04:11:10;;;;;;;;;;;;;;;21.77;38.98;96040.94;6130434;19;1122;-83
2022/12/18 04:13:13;;;;;;;;;;;;;;;21.76;38.84;96052.66;6129074;19;1101;-82
2022/12/18 04:15:17;;;;;;;;;;;;;;;21.78;38.62;96047.97;6130046;19;1060;-82
2022/12/18 04:17:20;;;;;;;;;;;;;;;21.77;38.61;96049.81;6130405;19;1029;-85
2022/12/18 04:19:24;;;;;;;;;;;;;;;21.79;38.98;96049.59;6118910;19;998;-81
2022/12/18 04:21:27;;;;;;;;;;;;;;;21.78;38.99;96061.34;6130057;19;1159;-82
2022/12/18 04:23:31;;;;;;;;;;;;;;;21.77;38.96;96065.88;6129873;19;1083;-81
2022/12/18 04:25:37;;;;;;;;;;;;;;;21.77;38.99;96068.53;6128694;19;1056;-82
2022/12/18 04:27:40;;;;;;;;;;;;;;;21.78;38.67;96067.50;6128593;19;1813;-82
2022/12/18 04:29:43;;;;;;;;;;;;;;;21.79;39.06;96068.31;6123813;19;1093;-83
2022/12/18 04:31:47;;;;;;;;;;;;;;;21.80;38.58;96059.31;6125576;19;1068;-82
2022/12/18 04:33:50;;;;;;;;;;;;;;;21.78;39.01;96080.06;6126643;19;1456;-82
2022/12/18 04:35:54;;;;;;;;;;;;;;;21.76;38.97;96071.41;6128557;19;1021;-82
2022/12/18 04:37:58;;;;;;;;;;;;;;;21.75;38.97;96077.78;6129071;19;1075;-81
2022/12/18 04:40:06;;;;;;;;;;;;;;;21.81;38.73;96082.34;6128377;19;1187;-81
2022/12/18 04:42:12;;;;;;;;;;;;;;;21.77;38.64;96087.25;6117563;19;1020;-81
2022/12/18 04:44:15;;;;;;;;;;;;;;;21.77;38.87;96083.75;6128339;19;1107;-81
2022/12/18 04:46:22;;;;;;;;;;;;;;;21.77;38.60;96083.75;6127696;19;1044;-81
2022/12/18 04:48:25;;;;;;;;;;;;;;;21.76;39.06;96090.13;6127141;19;1818;-82
2022/12/18 04:50:29;;;;;;;;;;;;;;;21.78;38.77;96106.81;6128148;19;1093;-82
2022/12/18 04:52:32;;;;;;;;;;;;;;;21.77;38.70;96097.13;6121695;19;1120;-82
2022/12/18 04:54:36;;;;;;;;;;;;;;;21.78;39.03;96109.50;6122104;19;1061;-83
2022/12/18 04:56:41;;;;;;;;;;;;;;;21.78;38.90;96106.81;6128377;19;977;-82
2022/12/18 04:58:47;;;;;;;;;;;;;;;21.75;39.05;96108.03;6128393;19;1061;-83
2022/12/18 05:00:51;;;;;;;;;;;;;;;21.79;39.00;96119.16;6127762;19;1020;-84
2022/12/18 05:02:54;;;;;;;;;;;;;;;21.77;38.98;96107.81;6124303;19;1016;-83
2022/12/18 05:04:57;;;;;;;;;;;;;;;21.79;38.57;96109.28;6113653;19;1042;-83
2022/12/18 05:07:01;;;;;;;;;;;;;;;21.76;38.96;96115.03;6123691;19;1343;-83
2022/12/18 05:09:04;;;;;;;;;;;;;;;21.77;39.02;96118.50;6123925;19;1837;-83
2022/12/18 05:11:08;;;;;;;;;;;;;;;21.75;39.06;96113.38;6124862;19;1065;-87
2022/12/18 05:13:12;;;;;;;;;;;;;;;21.77;38.65;96118.50;6121747;19;1131;-83
2022/12/18 05:15:15;;;;;;;;;;;;;;;21.79;39.01;96124.50;6118875;19;1004;-83
2022/12/18 05:17:19;;;;;;;;;;;;;;;21.77;39.04;96139.91;6118531;19;1082;-83
2022/12/18 05:19:22;;;;;;;;;;;;;;;21.77;38.62;96131.88;6123957;19;1167;-81
2022/12/18 05:21:25;;;;;;;;;;;;;;;21.76;39.07;96131.06;6124806;19;985;-81
2022/12/18 05:23:31;;;;;;;;;;;;;;;21.76;38.74;96139.09;6124422;19;977;-82
2022/12/18 05:25:34;;;;;;;;;;;;;;;21.76;38.96;96141.78;6124112;19;912;-82
2022/12/18 05:27:37;;;;;;;;;;;;;;;21.76;38.82;96151.66;6118347;19;1080;-81
2022/12/18 05:29:41;;;;;;;;;;;;;;;21.76;39.04;96148.97;6125086;19;1878;-82
2022/12/18 05:31:47;;;;;;;;;;;;;;;21.74;39.00;96153.69;6124815;19;1492;-81
2022/12/18 05:33:50;;;;;;;;;;;;;;;21.75;39.09;96156.19;6126965;19;1168;-81
2022/12/18 05:35:54;;;;;;;;;;;;;;;21.72;38.67;96155.75;6125403;19;1410;-81
2022/12/18 05:38:00;;;;;;;;;;;;;;;21.77;38.99;96159.50;6122735;19;1093;-81
2022/12/18 05:40:04;;;;;;;;;;;;;;;21.77;38.68;96148.81;6122773;19;1102;-83
2022/12/18 05:42:07;;;;;;;;;;;;;;;21.75;38.66;96160.72;6126386;19;1092;-81
2022/12/18 05:44:10;;;;;;;;;;;;;;;21.76;38.60;96151.66;6126839;19;1125;-81
2022/12/18 05:46:15;;;;;;;;;;;;;;;21.78;38.89;96160.31;6126554;19;1060;-82
2022/12/18 05:48:22;;;;;;;;;;;;;;;21.77;38.62;96172.03;6126635;19;1857;-81
2022/12/18 05:50:26;;;;;;;;;;;;;;;21.78;38.99;96177.19;6113875;19;1045;-81
2022/12/18 05:52:29;;;;;;;;;;;;;;;21.77;38.66;96177.38;6126006;19;1104;-81
2022/12/18 05:54:32;;;;;;;;;;;;;;;21.76;38.61;96183.75;6126119;19;1020;-81
2022/12/18 05:56:36;;;;;;;;;;;;;;;21.76;39.02;96179.22;6126763;19;957;-81
2022/12/18 05:58:42;;;;;;;;;;;;;;;21.79;38.73;96188.72;6125500;19;1534;-81
2022/12/18 06:00:46;;;;;;;;;;;;;;;21.77;38.98;96193.44;6120463;19;1021;-85
2022/12/18 06:02:51;;;;;;;;;;;;;;;21.79;38.81;96196.75;6122512;19;1001;-82
2022/12/18 06:04:57;;;;;;;;;;;;;;;21.76;39.05;96200.63;6126098;19;1100;-82
2022/12/18 06:07:01;;;;;;;;;;;;;;;21.77;39.03;96201.44;6125493;19;1311;-81
2022/12/18 06:09:08;;;;;;;;;;;;;;;21.78;38.94;96197.78;6124998;19;1817;-82
2022/12/18 06:11:11;;;;;;;;;;;;;;;21.77;38.67;96202.31;6125952;19;1019;-81
2022/12/18 06:13:18;;;;;;;;;;;;;;;21.77;39.01;96204.13;6113977;19;1169;-81
2022/12/18 06:15:21;;;;;;;;;;;;;;;21.73;39.02;96198.34;6125139;19;997;-80
2022/12/18 06:17:25;;;;;;;;;;;;;;;21.71;38.82;96204.88;6125071;19;957;-82
2022/12/18 06:19:28;;;;;;;;;;;;;;;21.73;38.68;96202.88;6126141;19;1011;-81
2022/12/18 06:21:38;;;;;;;;;;;;;;;21.75;38.91;96220.38;6125264;19;1045;-80
2022/12/18 06:23:42;;;;;;;;;;;;;;;21.74;38.81;96213.38;6112485;19;1494;-81
2022/12/18 06:25:45;;;;;;;;;;;;;;;21.76;38.59;96213.19;6124570;19;1084;-81
2022/12/18 06:27:50;;;;;;;;;;;;;;;21.83;38.84;96225.63;6125869;19;993;-80
2022/12/18 06:29:53;;;;;;;;;;;;;;;21.83;38.53;96230.16;6124803;19;1822;-80
2022/12/18 06:31:56;;;;;;;;;;;;;;;21.80;38.88;96236.69;6125259;19;1144;-81
2022/12/18 06:34:00;;;;;;;;;;;;;;;21.78;38.90;96237.91;6125446;19;1112;-82
2022/12/18 06:36:04;;;;;;;;;;;;;;;21.75;38.54;96238.28;6115037;19;1077;-82
2022/12/18 06:38:10;;;;;;;;;;;;;;;21.74;38.57;96234.78;6125492;19;1084;-83
2022/12/18 06:40:15;;;;;;;;;;;;;;;21.67;38.87;96242.72;6125625;19;1493;-82
2022/12/18 06:42:18;;;;;;;;;;;;;;;21.65;39.01;96242.09;6126141;19;1056;-82
2022/12/18 06:44:22;;;;;;;;;;;;;;;21.67;38.74;96240.06;6126420;19;1088;-82
2022/12/18 06:46:25;;;;;;;;;;;;;;;21.64;38.77;96243.09;6115442;19;1033;-83
2022/12/18 06:48:29;;;;;;;;;;;;;;;21.70;38.60;96246.88;6125229;19;1849;-83
2022/12/18 06:50:33;;;;;;;;;;;;;;;21.64;38.91;96247.63;6126581;19;1148;-81
2022/12/18 06:52:36;;;;;;;;;;;;;;;21.61;38.80;96243.47;6126543;19;1028;-81
2022/12/18 06:54:42;;;;;;;;;;;;;;;21.61;38.79;96246.16;6126151;19;1067;-83
2022/12/18 06:56:48;;;;;;;;;;;;;;;21.63;39.04;96249.47;6125613;19;1264;-83
2022/12/18 06:58:52;;;;;;;;;;;;;;;21.65;39.01;96252.81;6114773;19;1335;-82
2022/12/18 07:00:55;;;;;;;;;;;;;;;21.61;39.24;96250.69;6129653;19;1053;-83
2022/12/18 07:03:00;;;;;;;;;;;;;;;21.61;38.80;96250.69;6129080;19;1518;-80
2022/12/18 07:05:03;;;;;;;;;;;;;;;21.64;39.05;96255.66;6129700;19;1008;-81
2022/12/18 07:07:07;;;;;;;;;;;;;;;;;;6128954;19;1321;-81
2022/12/18 07:09:13;;;;;;;;;;;;;;;21.63;39.19;96252.16;6119275;19;1821;-83
2022/12/18 07:11:20;;;;;;;;;;;;;;;21.64;38.91;96258.34;6129779;19;1171;-81
2022/12/18 07:13:24;;;;;;;;;;;;;;;21.62;39.17;96269.19;6126626;19;1061;-81
2022/12/18 07:15:27;;;;;;;;;;;;;;;21.61;38.75;96267.56;6122610;19;1373;-81
2022/12/18 07:17:31;;;;;;;;;;;;;;;21.58;38.85;96265.25;6123402;19;1049;-81
2022/12/18 07:19:36;;;;;;;;;;;;;;;21.61;39.00;96261.38;6124338;19;994;-82
2022/12/18 07:21:41;;;;;;;;;;;;;;;21.58;39.07;96265.25;6115678;19;1147;-83
2022/12/18 07:23:46;;;;;;;;;;;;;;;21.61;38.81;96269.41;6124505;19;1048;-82
2022/12/18 07:25:49;;;;;;;;;;;;;;;21.62;38.74;96269.19;6124254;19;1024;-83
2022/12/18 07:27:57;;;;;;;;;;;;;;;21.60;38.77;96265.09;6124252;19;1008;-82
2022/12/18 07:30:01;;;;;;;;;;;;;;;21.59;38.89;96264.22;6122624;19;1860;-81
2022/12/18 07:32:04;;;;;;;;;;;;;;;21.60;38.89;96276.59;6112355;19;1067;-82
2022/12/18 07:34:07;;;;;;;;;;;;;;;21.56;39.10;96277.97;6123452;19;957;-82
2022/12/18 07:36:12;;;;;;;;;;;;;;;21.59;39.19;96284.81;6126624;19;1056;-81
2022/12/18 07:38:16;;;;;;;;;;;;;;;21.60;39.16;96284.63;6129180;19;1032;-81
2022/12/18 07:40:19;;;;;;;;;;;;;;;21.61;39.04;96283.59;6129325;19;1081;-81
2022/12/18 07:42:36;;;;;;;;;;;;;;;21.57;38.77;96285.00;6127352;19;957;-84
2022/12/18 07:44:43;;;;;;;;;;;;;;;21.58;39.11;96294.69;6122947;19;1065;-81
2022/12/18 07:46:46;;;;;;;;;;;;;;;21.57;38.73;96297.53;6129028;19;991;-81
2022/12/18 07:48:50;;;;;;;;;;;;;;;21.57;39.16;96305.56;6128696;19;1849;-81
2022/12/18 07:50:53;;;;;;;;;;;;;;;21.57;38.83;96300.19;6129541;19;1120;-81
2022/12/18 07:52:57;;;;;;;;;;;;;;;21.59;39.03;96300.84;6128463;19;1115;-81
2022/12/18 07:55:00;;;;;;;;;;;;;;;;;;6118767;19;1159;-82
2022/12/18 07:57:04;;;;;;;;;;;;;;;21.60;38.75;96299.84;6129388;19;966;-81
2022/12/18 07:59:07;;;;;;;;;;;;;;;21.57;39.22;96301.06;6126909;19;1509;-81
2022/12/18 08:01:14;;;;;;;;;;;;;;;21.58;38.81;96305.38;6127714;19;1467;-81
2022/12/18 08:03:17;;;;;;;;;;;;;;;21.58;39.15;96310.72;6128142;19;1165;-81
2022/12/18 08:05:23;;;;;;;;;;;;;;;21.57;38.75;96313.56;6123518;19;1107;-81
2022/12/18 08:07:26;;;;;;;;;;;;;;;21.52;39.22;96322.19;6121020;19;1513;-81
2022/12/18 08:09:30;;;;;;;;;;;;;;;21.53;38.93;96318.47;6127826;19;1802;-80
2022/12/18 08:11:36;;;;;;;;;;;;;;;21.55;38.83;96332.50;6128389;19;1037;-81
2022/12/18 08:13:42;;;;;;;;;;;;;;;21.49;39.20;96330.56;6127630;19;1125;-81
2022/12/18 08:15:47;;;;;;;;;;;;;;;21.50;39.31;96336.75;6128186;19;1147;-81
2022/12/18 08:17:54;;;;;;;;;;;;;;;21.49;39.33;96343.13;6116704;19;1022;-81
2022/12/18 08:19:57;;;;;;;;;;;;;;;21.49;39.12;96341.28;6127728;19;1207;-81
2022/12/18 08:22:00;;;;;;;;;;;;;;;21.52;39.11;96343.56;6128124;19;1044;-81
2022/12/18 08:24:04;;;;;;;;;;;;;;;21.49;39.17;96346.63;6126989;19;1564;-81
2022/12/18 08:26:10;;;;;;;;;;;;;;;21.49;39.22;96343.94;6128198;19;1256;-82
2022/12/18 08:28:15;;;;;;;;;;;;;;;21.52;39.31;96348.09;6123145;19;1479;-81
2022/12/18 08:30:19;;;;;;;;;;;;;;;21.49;39.37;96346.63;6120554;19;1843;-82
2022/12/18 08:32:22;;;;;;;;;;;;;;;21.45;39.26;96346.16;6128852;19;914;-82
2022/12/18 08:34:29;;;;;;;;;;;;;;;21.45;39.03;96347.97;6129829;19;1099;-80
2022/12/18 08:36:32;;;;;;;;;;;;;;;21.44;39.07;96347.16;6128517;19;1128;-81
2022/12/18 08:38:37;;;;;;;;;;;;;;;21.44;39.35;96352.50;6125732;19;1449;-81
2022/12/18 08:40:40;;;;;;;;;;;;;;;21.38;39.53;96353.25;6116398;19;1068;-81
2022/12/18 08:44:59;;;;;;;;;;;;;;;21.43;39.44;96355.38;6129463;19;868;-81
2022/12/18 08:47:02;;;;;;;;;;;;;;;21.43;39.13;96356.22;6126032;19;1539;-81
2022/12/18 08:49:06;;;;;;;;;;;;;;;21.43;38.94;96345.50;6127996;19;1140;-81
2022/12/18 08:51:12;;;;;;;;;;;;;;;21.44;39.00;96355.19;6118629;19;1802;-84
2022/12/18 08:53:16;;;;;;;;;;;;;;;21.44;38.89;96347.16;6126329;19;1009;-81
2022/12/18 08:55:20;;;;;;;;;;;;;;;21.44;39.35;96357.03;6126091;19;1450;-81
2022/12/18 08:57:23;;;;;;;;;;;;;;;21.45;39.21;96347.97;6126478;19;1476;-81
2022/12/18 08:59:27;;;;;;;;;;;;;;;21.41;38.97;96352.88;6127617;19;937;-80
2022/12/18 09:01:31;;;;;;;;;;;;;;;21.45;39.04;96353.34;6125822;19;1494;-81
2022/12/18 09:03:34;;;;;;;;;;;;;;;21.45;38.91;96358.69;6115611;19;1056;-81
2022/12/18 09:05:38;;;;;;;;;;;;;;;21.43;39.36;96350.03;6127468;19;1330;-81
2022/12/18 09:07:44;;;;;;;;;;;;;;;21.41;39.32;96352.88;6125289;19;1522;-81
2022/12/18 09:09:47;;;;;;;;;;;;;;;21.44;39.35;96354.34;6127705;19;1849;-81
2022/12/18 09:11:50;;;;;;;;;;;;;;;21.45;38.88;96348.84;6126846;19;1156;-81
2022/12/18 09:13:55;;;;;;;;;;;;;;;21.47;38.87;96359.34;6117169;19;1561;-83
2022/12/18 09:15:58;;;;;;;;;;;;;;;21.43;39.09;96342.00;6125124;19;1085;-81
2022/12/18 09:18:02;;;;;;;;;;;;;;;21.47;38.81;96345.97;6127900;19;1083;-81
2022/12/18 09:20:05;;;;;;;;;;;;;;;21.40;39.10;96353.09;6127681;19;1080;-81
2022/12/18 09:22:09;;;;;;;;;;;;;;;21.44;39.27;96351.69;6127020;19;1096;-81
2022/12/18 09:24:18;;;;;;;;;;;;;;;21.41;39.40;96352.88;6127397;19;1040;-82
2022/12/18 09:26:21;;;;;;;;;;;;;;;21.41;39.22;96349.38;6121655;19;1091;-81
2022/12/18 09:28:27;;;;;;;;;;;;;;;21.44;39.02;96351.69;6126640;19;1082;-82
2022/12/18 09:30:33;;;;;;;;;;;;;;;21.48;38.76;96350.28;6125905;19;1810;-82
2022/12/18 09:32:36;;;;;;;;;;;;;;;21.43;39.23;96355.38;6127894;19;1100;-82
2022/12/18 09:34:42;;;;;;;;;;;;;;;21.41;39.25;96354.72;6126857;19;1114;-81
2022/12/18 09:36:45;;;;;;;;;;;;;;;21.44;38.95;96357.03;6113683;19;1394;-82
2022/12/18 09:38:49;;;;;;;;;;;;;;;21.46;38.89;96355.00;6125184;19;1489;-82
2022/12/18 09:40:56;;;;;;;;;;;;;;;21.44;38.98;96357.03;6126681;19;1152;-81
2022/12/18 09:43:02;;;;;;;;;;;;;;;21.43;39.11;96355.38;6126868;19;1061;-82
2022/12/18 09:45:05;;;;;;;;;;;;;;;21.43;39.17;96364.22;6125339;19;1076;-81
2022/12/18 09:47:12;;;;;;;;;;;;;;;21.43;39.10;96361.56;6121676;19;1131;-81
2022/12/18 09:49:18;;;;;;;;;;;;;;;21.42;39.27;96359.88;6115615;19;1153;-81
2022/12/18 09:51:25;;;;;;;;;;;;;;;21.47;38.91;96367.34;6122446;19;1862;-81
2022/12/18 09:53:30;;;;;;;;;;;;;;;21.45;39.25;96358.69;6123225;19;1156;-81
2022/12/18 09:55:37;;;;;;;;;;;;;;;21.43;39.30;96361.56;6123311;19;1065;-81
2022/12/18 09:57:46;;;;;;;;;;;;;;;21.41;39.30;96360.91;6122750;19;995;-79
2022/12/18 09:59:53;;;;;;;;;;;;;;;21.41;39.27;96360.91;6112248;19;1050;-81
2022/12/18 10:01:56;;;;;;;;;;;;;;;21.42;38.80;96351.84;6124185;19;1055;-82
2022/12/18 10:04:00;;;;;;;;;;;;;;;21.39;39.28;96356.75;6123404;19;1025;-81
2022/12/18 10:06:08;;;;;;;;;;;;;;;21.43;38.80;96358.88;6122951;19;1331;-81
2022/12/18 10:08:13;;;;;;;;;;;;;;;21.40;38.85;96350.41;6123867;19;1530;-81
2022/12/18 10:10:22;;;;;;;;;;;;;;;21.42;38.93;96356.38;6116526;19;1829;-81
2022/12/18 10:12:28;;;;;;;;;;;;;;;21.38;39.02;96357.78;6116929;19;1106;-81
2022/12/18 10:14:36;;;;;;;;;;;;;;;21.42;38.83;96361.72;6121494;19;1233;-81
2022/12/18 10:16:44;;;;;;;;;;;;;;;21.35;39.28;96358.97;6122465;19;970;-82
2022/12/18 10:19:00;;;;;;;;;;;;;;;21.43;38.98;96363.41;6122619;19;1092;-81
2022/12/18 10:21:09;;;;;;;;;;;;;;;21.41;38.86;96360.91;6122469;19;988;-80
2022/12/18 10:23:18;;;;;;;;;;;;;;;21.38;39.23;96357.78;6111157;19;1248;-81
2022/12/18 10:25:25;;;;;;;;;;;;;;;21.43;38.73;96358.06;6123587;19;1152;-80
2022/12/18 10:27:29;;;;;;;;;;;;;;;21.39;39.18;96357.56;6122328;19;1044;-81
2022/12/18 10:29:35;;;;;;;;;;;;;;;21.33;39.33;96368.19;6122261;19;1021;-81
2022/12/18 10:31:38;;;;;;;;;;;;;;;21.39;38.87;96375.47;6121385;19;1902;-83
2022/12/18 10:33:42;;;;;;;;;;;;;;;21.37;38.93;96362.28;6110039;19;1025;-81
2022/12/18 10:35:45;;;;;;;;;;;;;;;21.35;39.06;96358.97;6121939;19;1052;-81
2022/12/18 10:38:19;;;;;;;;;;;;;;;21.38;38.86;96357.78;6121514;19;1633;-81
2022/12/18 10:40:26;;;;;;;;;;;;;;;21.39;38.84;96354.06;6119642;19;1085;-81
2022/12/18 10:42:30;;;;;;;;;;;;;;;21.34;39.04;96353.78;6120848;19;997;-81
2022/12/18 10:44:36;;;;;;;;;;;;;;;21.32;38.96;96356.66;6115394;19;1068;-82
2022/12/18 10:46:39;;;;;;;;;;;;;;;21.30;39.23;96355.19;6120562;19;1027;-81
2022/12/18 10:48:50;;;;;;;;;;;;;;;21.34;39.27;96357.31;6123246;19;994;-81
2022/12/18 10:50:54;;;;;;;;;;;;;;;21.34;39.21;96349.31;6121931;19;1857;-81
2022/12/18 10:52:58;;;;;;;;;;;;;;;21.35;38.92;96350.13;6122547;19;1029;-81
2022/12/18 10:55:03;;;;;;;;;;;;;;;21.34;39.00;96351.97;6122359;19;1174;-81
2022/12/18 10:57:26;;;;;;;;;;;;;;;21.38;39.27;96355.09;6109932;19;1115;-81
2022/12/18 10:59:29;;;;;;;;;;;;;;;21.36;39.27;96352.59;6121776;19;1128;-83
2022/12/18 11:01:47;;;;;;;;;;;;;;;21.39;38.84;96356.75;6122259;19;1029;-81
2022/12/18 11:04:01;;;;;;;;;;;;;;;21.39;39.15;96348.72;6122558;19;1058;-81
2022/12/18 11:06:06;;;;;;;;;;;;;;;21.43;38.70;96350.84;6120313;19;1390;-80
2022/12/18 11:08:22;;;;;;;;;;;;;;;21.37;38.85;96353.41;6109422;19;1008;-82
2022/12/18 11:10:28;;;;;;;;;;;;;;;21.32;39.22;96348.63;6125430;19;1849;-82